createdAt,value
2023-04-23T00:00:25.636Z,7.80
2023-04-23T00:01:25.565Z,6.90
2023-04-23T00:02:25.625Z,10.80
2023-04-23T00:03:25.697Z,10.10
2023-04-23T00:04:26.020Z,15.50
2023-04-23T00:05:25.586Z,9.10
2023-04-23T00:06:25.549Z,5.80
2023-04-23T00:07:25.488Z,9.00
2023-04-23T00:08:25.500Z,9.60
2023-04-23T00:09:25.506Z,9.90
2023-04-23T00:10:25.456Z,7.50
2023-04-23T00:11:25.787Z,11.80
2023-04-23T00:12:25.468Z,8.00
2023-04-23T00:13:25.417Z,11.90
2023-04-23T00:14:25.409Z,6.70
2023-04-23T00:15:25.438Z,7.70
2023-04-23T00:16:25.404Z,14.70
2023-04-23T00:17:25.398Z,14.50
2023-04-23T00:18:25.763Z,6.40
2023-04-23T00:19:25.374Z,6.50
2023-04-23T00:20:25.348Z,11.90
2023-04-23T00:21:25.355Z,6.00
2023-04-23T00:22:25.397Z,11.80
2023-04-23T00:23:25.324Z,10.40
2023-04-23T00:24:25.336Z,10.30
2023-04-23T00:25:25.580Z,12.30
2023-04-23T00:26:25.301Z,5.80
2023-04-23T00:27:25.304Z,6.70
2023-04-23T00:28:25.276Z,9.30
2023-04-23T00:29:25.266Z,12.60
2023-04-23T00:30:25.303Z,9.90
2023-04-23T00:31:31.623Z,8.10
2023-04-23T00:32:25.239Z,5.20
2023-04-23T00:33:25.239Z,9.80
2023-04-23T00:34:25.222Z,9.40
2023-04-23T00:35:25.215Z,8.50
2023-04-23T00:36:25.220Z,10.80
2023-04-23T00:37:25.163Z,6.50
2023-04-23T00:38:25.462Z,10.10
2023-04-23T00:39:25.168Z,9.40
2023-04-23T00:40:25.196Z,7.50
2023-04-23T00:41:25.152Z,10.70
2023-04-23T00:42:25.193Z,7.50
2023-04-23T00:43:25.137Z,11.20
2023-04-23T00:44:25.114Z,7.70
2023-04-23T00:45:25.427Z,5.20
2023-04-23T00:46:25.112Z,8.80
2023-04-23T00:47:25.096Z,9.40
2023-04-23T00:48:25.133Z,15.10
2023-04-23T00:49:25.064Z,12.60
2023-04-23T00:50:25.027Z,4.70
2023-04-23T00:51:25.036Z,8.90
2023-04-23T00:52:25.296Z,8.50
2023-04-23T00:53:25.015Z,6.90
2023-04-23T00:54:25.029Z,9.80
2023-04-23T00:55:24.994Z,10.30
2023-04-23T00:56:24.974Z,11.90
2023-04-23T00:57:24.974Z,14.10
2023-04-23T00:58:24.976Z,7.90
2023-04-23T00:59:25.240Z,6.40
2023-04-23T01:00:24.987Z,8.00
2023-04-23T01:01:24.963Z,11.40
2023-04-23T01:02:25.007Z,5.10
2023-04-23T01:03:24.977Z,8.60
2023-04-23T01:04:24.952Z,7.00
2023-04-23T01:05:24.878Z,5.20
2023-04-23T01:06:25.250Z,16.20
2023-04-23T01:07:24.855Z,10.80
2023-04-23T01:08:24.882Z,10.10
2023-04-23T01:09:24.834Z,8.20
2023-04-23T01:10:24.832Z,7.00
2023-04-23T01:11:24.814Z,26.10
2023-04-23T01:12:24.874Z,13.00
2023-04-23T01:13:25.129Z,10.50
2023-04-23T01:14:24.870Z,14.30
2023-04-23T01:15:24.782Z,8.90
2023-04-23T01:16:24.772Z,10.20
2023-04-23T01:17:24.792Z,7.50
2023-04-23T01:18:24.810Z,7.00
2023-04-23T01:19:24.753Z,15.50
2023-04-23T01:20:25.057Z,11.40
2023-04-23T01:21:24.763Z,8.20
2023-04-23T01:22:24.709Z,11.70
2023-04-23T01:23:24.728Z,13.00
2023-04-23T01:24:24.733Z,10.20
2023-04-23T01:25:24.714Z,7.80
2023-04-23T01:26:24.678Z,10.10
2023-04-23T01:27:25.590Z,14.30
2023-04-23T01:28:24.655Z,11.50
2023-04-23T01:29:24.661Z,10.00
2023-04-23T01:30:24.727Z,8.80
2023-04-23T01:31:24.716Z,9.50
2023-04-23T01:32:24.682Z,8.10
2023-04-23T01:33:24.624Z,14.50
2023-04-23T01:34:24.876Z,11.40
2023-04-23T01:35:24.583Z,7.90
2023-04-23T01:36:24.592Z,15.80
2023-04-23T01:37:24.568Z,11.70
2023-04-23T01:38:24.617Z,6.70
2023-04-23T01:39:24.526Z,11.90
2023-04-23T01:40:24.549Z,14.10
2023-04-23T01:41:24.814Z,10.90
2023-04-23T01:42:24.539Z,11.20
2023-04-23T01:43:24.495Z,9.60
2023-04-23T01:44:24.480Z,11.10
2023-04-23T01:45:24.491Z,12.10
2023-04-23T01:46:24.494Z,11.50
2023-04-23T01:47:24.478Z,13.30
2023-04-23T01:48:24.778Z,11.10
2023-04-23T01:49:24.435Z,13.40
2023-04-23T01:50:24.439Z,8.90
2023-04-23T01:51:24.392Z,10.30
2023-04-23T01:52:24.380Z,14.10
2023-04-23T01:53:24.388Z,9.40
2023-04-23T01:54:24.487Z,10.30
2023-04-23T01:55:24.671Z,10.10
2023-04-23T01:56:24.353Z,9.20
2023-04-23T01:57:24.454Z,14.70
2023-04-23T01:58:24.351Z,13.70
2023-04-23T01:59:24.361Z,19.90
2023-04-23T02:00:24.348Z,12.50
2023-04-23T02:01:24.335Z,12.20
2023-04-23T02:02:24.620Z,10.70
2023-04-23T02:03:24.497Z,21.30
2023-04-23T02:04:24.464Z,15.50
2023-04-23T02:05:24.294Z,13.30
2023-04-23T02:06:25.266Z,21.70
2023-04-23T02:07:24.247Z,12.30
2023-04-23T02:08:24.245Z,14.90
2023-04-23T02:09:24.527Z,11.90
2023-04-23T02:10:24.198Z,16.10
2023-04-23T02:11:24.203Z,14.00
2023-04-23T02:12:25.287Z,12.00
2023-04-23T02:13:24.179Z,12.90
2023-04-23T02:14:24.166Z,9.70
2023-04-23T02:15:24.161Z,19.60
2023-04-23T02:16:24.463Z,12.90
2023-04-23T02:17:24.147Z,8.50
2023-04-23T02:18:24.190Z,10.70
2023-04-23T02:19:24.746Z,12.30
2023-04-23T02:20:24.104Z,18.70
2023-04-23T02:21:24.130Z,16.20
2023-04-23T02:22:24.080Z,13.50
2023-04-23T02:23:24.089Z,13.40
2023-04-23T02:24:24.117Z,13.30
2023-04-23T02:25:24.087Z,11.70
2023-04-23T02:26:24.062Z,17.60
2023-04-23T02:27:24.033Z,13.50
2023-04-23T02:28:24.044Z,16.20
2023-04-23T02:29:24.360Z,16.70
2023-04-23T02:30:24.102Z,10.20
2023-04-23T02:31:24.039Z,11.20
2023-04-23T02:32:24.014Z,9.80
2023-04-23T02:33:23.980Z,11.10
2023-04-23T02:34:23.974Z,11.90
2023-04-23T02:35:23.962Z,13.10
2023-04-23T02:36:23.982Z,13.30
2023-04-23T02:37:23.948Z,10.80
2023-04-23T02:38:23.913Z,10.50
2023-04-23T02:39:23.925Z,13.10
2023-04-23T02:40:23.910Z,12.40
2023-04-23T02:41:25.105Z,6.50
2023-04-23T02:42:23.911Z,11.60
2023-04-23T02:43:23.952Z,10.90
2023-04-23T02:44:23.881Z,9.80
2023-04-23T02:45:23.863Z,10.20
2023-04-23T02:46:23.868Z,12.10
2023-04-23T02:47:23.873Z,7.80
2023-04-23T02:48:23.870Z,8.20
2023-04-23T02:49:23.794Z,8.00
2023-04-23T02:50:23.797Z,15.60
2023-04-23T02:51:23.810Z,18.00
2023-04-23T02:52:23.779Z,14.30
2023-04-23T02:53:24.099Z,8.40
2023-04-23T02:54:23.793Z,12.30
2023-04-23T02:55:23.748Z,11.80
2023-04-23T02:56:23.769Z,14.00
2023-04-23T02:57:23.750Z,9.30
2023-04-23T02:58:23.707Z,8.20
2023-04-23T02:59:23.718Z,16.60
2023-04-23T03:00:24.037Z,5.00
2023-04-23T03:01:23.781Z,12.10
2023-04-23T03:02:23.806Z,9.50
2023-04-23T03:03:23.773Z,11.00
2023-04-23T03:04:23.798Z,8.00
2023-04-23T03:05:23.698Z,10.30
2023-04-23T03:06:23.725Z,16.50
2023-04-23T03:07:23.907Z,13.90
2023-04-23T03:08:23.609Z,9.00
2023-04-23T03:09:23.598Z,11.30
2023-04-23T03:10:23.585Z,14.40
2023-04-23T03:11:23.617Z,9.10
2023-04-23T03:12:23.637Z,13.80
2023-04-23T03:13:23.550Z,19.10
2023-04-23T03:14:23.821Z,7.70
2023-04-23T03:15:23.606Z,15.50
2023-04-23T03:16:23.563Z,11.00
2023-04-23T03:17:23.622Z,9.40
2023-04-23T03:18:23.587Z,12.60
2023-04-23T03:19:23.508Z,10.20
2023-04-23T03:20:23.476Z,8.70
2023-04-23T03:21:23.755Z,7.80
2023-04-23T03:22:23.478Z,16.50
2023-04-23T03:23:23.480Z,6.60
2023-04-23T03:24:23.509Z,15.00
2023-04-23T03:25:23.450Z,7.20
2023-04-23T03:26:23.474Z,11.50
2023-04-23T03:27:23.408Z,10.20
2023-04-23T03:28:23.680Z,16.00
2023-04-23T03:29:23.400Z,14.30
2023-04-23T03:30:23.418Z,14.40
2023-04-23T03:31:23.457Z,13.80
2023-04-23T03:32:23.405Z,10.90
2023-04-23T03:33:23.331Z,13.50
2023-04-23T03:34:23.363Z,12.50
2023-04-23T03:35:23.591Z,11.90
2023-04-23T03:36:23.798Z,11.90
2023-04-23T03:37:23.310Z,16.70
2023-04-23T03:38:23.322Z,11.40
2023-04-23T03:39:23.288Z,15.80
2023-04-23T03:40:23.267Z,17.70
2023-04-23T03:41:23.261Z,8.10
2023-04-23T03:42:23.614Z,15.30
2023-04-23T03:43:23.843Z,11.10
2023-04-23T03:44:23.309Z,12.10
2023-04-23T03:45:23.206Z,9.20
2023-04-23T03:46:23.296Z,6.80
2023-04-23T03:47:23.238Z,12.20
2023-04-23T03:48:23.299Z,13.90
2023-04-23T03:49:24.074Z,9.10
2023-04-23T03:50:23.158Z,9.60
2023-04-23T03:51:23.173Z,11.90
2023-04-23T03:52:23.150Z,13.00
2023-04-23T03:53:23.142Z,18.20
2023-04-23T03:54:23.178Z,12.50
2023-04-23T03:55:23.150Z,17.20
2023-04-23T03:56:25.200Z,11.70
2023-04-23T03:57:23.098Z,8.70
2023-04-23T03:58:23.093Z,11.90
2023-04-23T03:59:23.093Z,17.90
2023-04-23T04:00:23.104Z,16.60
2023-04-23T04:01:23.068Z,10.20
2023-04-23T04:02:23.240Z,19.50
2023-04-23T04:03:23.605Z,10.80
2023-04-23T04:04:23.259Z,20.90
2023-04-23T04:05:23.110Z,8.50
2023-04-23T04:06:23.041Z,13.40
2023-04-23T04:07:23.007Z,12.00
2023-04-23T04:08:23.001Z,12.10
2023-04-23T04:09:22.986Z,8.10
2023-04-23T04:10:23.228Z,16.30
2023-04-23T04:11:22.956Z,12.00
2023-04-23T04:12:22.970Z,12.20
2023-04-23T04:13:22.924Z,18.30
2023-04-23T04:14:22.925Z,16.30
2023-04-23T04:15:22.968Z,16.00
2023-04-23T04:16:22.924Z,19.00
2023-04-23T04:17:23.220Z,10.50
2023-04-23T04:18:22.939Z,14.60
2023-04-23T04:19:22.875Z,14.80
2023-04-23T04:20:22.850Z,15.10
2023-04-23T04:21:22.848Z,13.00
2023-04-23T04:22:22.831Z,9.10
2023-04-23T04:23:22.833Z,14.00
2023-04-23T04:24:25.660Z,11.50
2023-04-23T04:25:22.824Z,8.40
2023-04-23T04:26:22.816Z,10.80
2023-04-23T04:27:22.786Z,13.00
2023-04-23T04:28:22.778Z,8.90
2023-04-23T04:29:22.821Z,17.60
2023-04-23T04:30:22.844Z,14.20
2023-04-23T04:31:23.050Z,8.60
2023-04-23T04:32:22.746Z,10.40
2023-04-23T04:33:22.735Z,15.70
2023-04-23T04:34:22.740Z,12.60
2023-04-23T04:35:22.697Z,16.30
2023-04-23T04:36:22.746Z,16.50
2023-04-23T04:37:22.694Z,13.30
2023-04-23T04:38:22.956Z,16.40
2023-04-23T04:39:22.652Z,11.50
2023-04-23T04:40:22.649Z,18.70
2023-04-23T04:41:22.649Z,14.60
2023-04-23T04:42:22.679Z,11.40
2023-04-23T04:43:22.617Z,17.20
2023-04-23T04:44:22.600Z,8.60
2023-04-23T04:45:22.607Z,16.80
2023-04-23T04:46:22.613Z,13.50
2023-04-23T04:47:22.586Z,10.20
2023-04-23T04:48:22.590Z,13.60
2023-04-23T04:49:22.565Z,27.20
2023-04-23T04:50:22.542Z,22.00
2023-04-23T04:51:22.829Z,16.10
2023-04-23T04:52:22.513Z,18.50
2023-04-23T04:53:22.510Z,22.40
2023-04-23T04:54:22.576Z,12.20
2023-04-23T04:55:22.506Z,26.40
2023-04-23T04:56:22.476Z,12.80
2023-04-23T04:57:22.488Z,14.00
2023-04-23T04:58:22.770Z,9.50
2023-04-23T04:59:22.459Z,12.00
2023-04-23T05:00:22.483Z,12.50
2023-04-23T05:01:22.498Z,8.30
2023-04-23T05:02:22.492Z,10.70
2023-04-23T05:03:22.480Z,12.80
2023-04-23T05:04:22.428Z,12.30
2023-04-23T05:05:22.653Z,10.50
2023-04-23T05:06:22.443Z,18.90
2023-04-23T05:07:22.368Z,10.20
2023-04-23T05:08:22.379Z,9.70
2023-04-23T05:09:22.396Z,11.60
2023-04-23T05:10:22.346Z,6.00
2023-04-23T05:11:22.319Z,11.40
2023-04-23T05:12:22.369Z,11.20
2023-04-23T05:13:22.310Z,11.00
2023-04-23T05:14:22.322Z,7.70
2023-04-23T05:15:22.303Z,12.80
2023-04-23T05:16:22.286Z,10.60
2023-04-23T05:17:22.381Z,13.10
2023-04-23T05:18:22.604Z,16.40
2023-04-23T05:19:22.256Z,16.90
2023-04-23T05:20:22.257Z,12.90
2023-04-23T05:21:22.230Z,12.60
2023-04-23T05:22:22.205Z,20.70
2023-04-23T05:23:22.213Z,15.60
2023-04-23T05:24:25.356Z,10.80
2023-04-23T05:25:22.187Z,11.10
2023-04-23T05:26:22.196Z,13.00
2023-04-23T05:27:22.192Z,11.90
2023-04-23T05:28:22.153Z,12.50
2023-04-23T05:29:22.180Z,9.50
2023-04-23T05:30:22.520Z,15.60
2023-04-23T05:31:22.226Z,20.80
2023-04-23T05:32:22.153Z,19.30
2023-04-23T05:33:22.103Z,12.10
2023-04-23T05:34:22.092Z,10.70
2023-04-23T05:35:22.079Z,7.20
2023-04-23T05:36:22.125Z,5.80
2023-04-23T05:37:22.058Z,12.00
2023-04-23T05:38:22.097Z,14.90
2023-04-23T05:39:22.030Z,9.50
2023-04-23T05:40:22.088Z,6.70
2023-04-23T05:41:22.013Z,7.90
2023-04-23T05:42:22.344Z,14.00
2023-04-23T05:43:22.010Z,16.30
2023-04-23T05:44:21.978Z,10.00
2023-04-23T05:45:21.984Z,11.10
2023-04-23T05:46:22.002Z,13.80
2023-04-23T05:47:22.091Z,16.90
2023-04-23T05:48:22.006Z,19.20
2023-04-23T05:49:22.209Z,8.90
2023-04-23T05:50:21.910Z,10.30
2023-04-23T05:51:21.932Z,14.60
2023-04-23T05:52:21.904Z,12.90
2023-04-23T05:53:21.871Z,15.10
2023-04-23T05:54:21.896Z,16.90
2023-04-23T05:55:21.850Z,11.00
2023-04-23T05:56:22.133Z,7.10
2023-04-23T05:57:21.844Z,8.80
2023-04-23T05:58:21.830Z,10.50
2023-04-23T05:59:21.822Z,13.10
2023-04-23T06:00:21.831Z,12.20
2023-04-23T06:01:21.798Z,8.30
2023-04-23T06:02:24.568Z,7.00
2023-04-23T06:03:22.181Z,15.00
2023-04-23T06:04:22.050Z,10.50
2023-04-23T06:05:22.004Z,10.80
2023-04-23T06:06:21.806Z,10.60
2023-04-23T06:07:21.735Z,8.10
2023-04-23T06:08:23.341Z,6.60
2023-04-23T06:09:21.708Z,12.90
2023-04-23T06:10:21.712Z,11.10
2023-04-23T06:11:21.693Z,13.70
2023-04-23T06:12:21.726Z,7.80
2023-04-23T06:13:21.670Z,6.30
2023-04-23T06:14:21.676Z,10.30
2023-04-23T06:15:21.661Z,5.20
2023-04-23T06:16:21.975Z,14.00
2023-04-23T06:17:21.618Z,6.70
2023-04-23T06:18:21.670Z,7.60
2023-04-23T06:19:21.608Z,9.40
2023-04-23T06:20:21.652Z,6.60
2023-04-23T06:21:21.591Z,6.40
2023-04-23T06:22:21.594Z,12.00
2023-04-23T06:23:21.853Z,8.70
2023-04-23T06:24:21.633Z,9.00
2023-04-23T06:25:21.559Z,10.00
2023-04-23T06:26:21.548Z,3.90
2023-04-23T06:27:21.527Z,4.90
2023-04-23T06:28:21.515Z,9.30
2023-04-23T06:29:21.521Z,8.60
2023-04-23T06:30:21.560Z,5.20
2023-04-23T06:31:21.574Z,8.50
2023-04-23T06:32:21.482Z,5.70
2023-04-23T06:33:21.544Z,7.00
2023-04-23T06:34:21.459Z,6.00
2023-04-23T06:35:21.451Z,12.40
2023-04-23T06:36:21.805Z,6.60
2023-04-23T06:37:21.416Z,6.60
2023-04-23T06:38:21.424Z,12.70
2023-04-23T06:39:21.402Z,8.80
2023-04-23T06:40:21.427Z,10.40
2023-04-23T06:41:21.379Z,4.30
2023-04-23T06:42:21.436Z,5.50
2023-04-23T06:43:21.373Z,5.30
2023-04-23T06:44:21.421Z,7.10
2023-04-23T06:45:22.324Z,6.50
2023-04-23T06:46:21.357Z,12.80
2023-04-23T06:47:21.407Z,4.70
2023-04-23T06:48:23.143Z,9.10
2023-04-23T06:49:21.306Z,5.50
2023-04-23T06:50:21.312Z,6.40
2023-04-23T06:51:21.315Z,4.80
2023-04-23T06:52:21.275Z,4.50
2023-04-23T06:53:21.294Z,6.40
2023-04-23T06:54:21.390Z,6.80
2023-04-23T06:55:28.107Z,7.20
2023-04-23T06:56:21.241Z,4.80
2023-04-23T06:57:21.258Z,6.10
2023-04-23T06:58:21.238Z,6.30
2023-04-23T06:59:21.249Z,4.80
2023-04-23T07:00:21.284Z,7.30
2023-04-23T07:01:21.230Z,7.00
2023-04-23T07:02:21.546Z,8.50
2023-04-23T07:03:21.313Z,8.10
2023-04-23T07:04:21.272Z,4.00
2023-04-23T07:05:21.200Z,3.20
2023-04-23T07:06:21.288Z,7.90
2023-04-23T07:07:21.161Z,4.30
2023-04-23T07:08:21.144Z,5.00
2023-04-23T07:09:21.154Z,6.40
2023-04-23T07:10:21.125Z,6.10
2023-04-23T07:11:21.141Z,5.70
2023-04-23T07:12:21.185Z,8.00
2023-04-23T07:13:21.079Z,4.90
2023-04-23T07:14:21.391Z,5.20
2023-04-23T07:15:21.160Z,7.00
2023-04-23T07:16:22.092Z,6.90
2023-04-23T07:17:21.170Z,5.30
2023-04-23T07:18:21.336Z,5.00
2023-04-23T07:19:21.079Z,5.40
2023-04-23T07:20:21.064Z,5.40
2023-04-23T07:21:21.362Z,6.20
2023-04-23T07:22:21.066Z,6.20
2023-04-23T07:23:21.014Z,4.80
2023-04-23T07:24:21.118Z,4.70
2023-04-23T07:25:20.994Z,5.40
2023-04-23T07:26:21.014Z,7.70
2023-04-23T07:27:21.021Z,5.50
2023-04-23T07:28:21.259Z,6.20
2023-04-23T07:29:20.987Z,8.80
2023-04-23T07:30:20.994Z,4.90
2023-04-23T07:31:21.013Z,6.70
2023-04-23T07:32:20.998Z,6.60
2023-04-23T07:33:20.964Z,6.50
2023-04-23T07:34:20.969Z,5.00
2023-04-23T07:35:21.157Z,6.30
2023-04-23T07:36:20.980Z,10.20
2023-04-23T07:37:20.920Z,5.40
2023-04-23T07:38:20.882Z,5.90
2023-04-23T07:39:20.855Z,7.80
2023-04-23T07:40:20.886Z,6.30
2023-04-23T07:41:20.814Z,6.90
2023-04-23T07:42:21.329Z,4.60
2023-04-23T07:43:20.807Z,4.90
2023-04-23T07:44:20.845Z,5.80
2023-04-23T07:45:20.783Z,6.40
2023-04-23T07:46:20.851Z,5.60
2023-04-23T07:47:20.764Z,7.00
2023-04-23T07:48:20.810Z,4.60
2023-04-23T07:49:21.073Z,7.50
2023-04-23T07:50:20.759Z,7.90
2023-04-23T07:51:20.773Z,7.40
2023-04-23T07:52:20.732Z,6.00
2023-04-23T07:53:20.737Z,6.00
2023-04-23T07:54:20.850Z,10.90
2023-04-23T07:55:20.716Z,4.90
2023-04-23T07:56:20.966Z,8.90
2023-04-23T07:57:20.728Z,4.80
2023-04-23T07:58:20.659Z,5.60
2023-04-23T07:59:20.714Z,5.70
2023-04-23T08:00:20.806Z,9.10
2023-04-23T08:01:20.706Z,6.30
2023-04-23T08:02:20.821Z,4.60
2023-04-23T08:03:21.503Z,5.10
2023-04-23T08:04:20.980Z,6.60
2023-04-23T08:05:20.833Z,5.20
2023-04-23T08:06:20.801Z,5.50
2023-04-23T08:07:20.577Z,9.10
2023-04-23T08:08:20.567Z,6.10
2023-04-23T08:09:20.835Z,5.20
2023-04-23T08:10:20.511Z,5.90
2023-04-23T08:11:20.541Z,8.10
2023-04-23T08:12:20.531Z,10.80
2023-04-23T08:13:20.513Z,7.20
2023-04-23T08:14:20.542Z,3.70
2023-04-23T08:15:20.496Z,8.20
2023-04-23T08:16:20.807Z,4.70
2023-04-23T08:17:20.461Z,6.70
2023-04-23T08:18:20.505Z,4.00
2023-04-23T08:19:20.455Z,4.70
2023-04-23T08:20:20.414Z,4.60
2023-04-23T08:21:20.393Z,8.20
2023-04-23T08:22:20.954Z,6.50
2023-04-23T08:23:20.749Z,7.40
2023-04-23T08:24:20.544Z,5.60
2023-04-23T08:25:20.387Z,5.60
2023-04-23T08:26:20.439Z,4.60
2023-04-23T08:27:20.304Z,7.20
2023-04-23T08:28:20.421Z,8.20
2023-04-23T08:29:20.391Z,6.50
2023-04-23T08:30:20.673Z,5.50
2023-04-23T08:31:26.481Z,7.10
2023-04-23T08:32:20.510Z,6.80
2023-04-23T08:33:20.305Z,4.60
2023-04-23T08:34:20.314Z,6.80
2023-04-23T08:35:20.277Z,5.70
2023-04-23T08:36:20.373Z,4.70
2023-04-23T08:37:30.387Z,6.60
2023-04-23T08:38:20.213Z,4.20
2023-04-23T08:39:20.259Z,5.40
2023-04-23T08:40:20.255Z,6.70
2023-04-23T08:41:20.180Z,4.80
2023-04-23T08:42:20.294Z,5.10
2023-04-23T08:43:20.164Z,9.20
2023-04-23T08:44:20.489Z,4.40
2023-04-23T08:45:20.202Z,7.00
2023-04-23T08:46:20.903Z,6.30
2023-04-23T08:47:20.148Z,4.60
2023-04-23T08:48:20.178Z,6.20
2023-04-23T08:49:20.166Z,4.50
2023-04-23T08:50:20.232Z,4.20
2023-04-23T08:51:20.412Z,4.10
2023-04-23T08:52:20.096Z,5.10
2023-04-23T08:53:20.124Z,5.90
2023-04-23T08:54:20.132Z,4.90
2023-04-23T08:55:20.043Z,4.90
2023-04-23T08:56:20.080Z,3.50
2023-04-23T08:57:20.091Z,4.80
2023-04-23T08:58:20.323Z,3.90
2023-04-23T08:59:20.009Z,3.40
2023-04-23T09:00:20.097Z,2.80
2023-04-23T09:01:20.146Z,4.10
2023-04-23T09:02:20.066Z,4.40
2023-04-23T09:03:20.075Z,5.10
2023-04-23T09:04:19.970Z,11.30
2023-04-23T09:05:19.975Z,4.30
2023-04-23T09:06:20.069Z,4.30
2023-04-23T09:07:19.934Z,4.70
2023-04-23T09:08:19.942Z,4.70
2023-04-23T09:09:19.892Z,3.60
2023-04-23T09:10:19.926Z,5.50
2023-04-23T09:11:20.179Z,3.60
2023-04-23T09:12:20.027Z,4.80
2023-04-23T09:13:19.860Z,3.90
2023-04-23T09:14:19.904Z,4.50
2023-04-23T09:15:19.824Z,3.70
2023-04-23T09:16:19.918Z,2.20
2023-04-23T09:17:19.862Z,4.00
2023-04-23T09:18:19.841Z,3.90
2023-04-23T09:19:19.792Z,2.70
2023-04-23T09:20:19.804Z,4.80
2023-04-23T09:21:19.771Z,4.10
2023-04-23T09:22:19.824Z,3.30
2023-04-23T09:23:20.122Z,2.70
2023-04-23T09:24:19.835Z,3.70
2023-04-23T09:25:19.770Z,2.80
2023-04-23T09:26:19.839Z,2.70
2023-04-23T09:27:19.742Z,5.00
2023-04-23T09:28:19.815Z,7.50
2023-04-23T09:29:19.777Z,4.50
2023-04-23T09:30:19.755Z,2.70
2023-04-23T09:31:19.755Z,8.10
2023-04-23T09:32:19.799Z,7.90
2023-04-23T09:33:19.706Z,2.90
2023-04-23T09:34:19.697Z,4.90
2023-04-23T09:35:19.970Z,4.10
2023-04-23T09:36:19.736Z,3.50
2023-04-23T09:37:19.623Z,2.20
2023-04-23T09:38:19.640Z,2.60
2023-04-23T09:39:19.728Z,3.60
2023-04-23T09:40:19.662Z,3.20
2023-04-23T09:41:19.685Z,3.30
2023-04-23T09:42:19.996Z,2.80
2023-04-23T09:43:19.572Z,4.40
2023-04-23T09:44:19.622Z,3.20
2023-04-23T09:45:19.610Z,3.60
2023-04-23T09:46:19.629Z,1.40
2023-04-23T09:47:19.636Z,3.00
2023-04-23T09:48:19.548Z,10.70
2023-04-23T09:49:19.851Z,3.30
2023-04-23T09:50:19.541Z,3.40
2023-04-23T09:51:19.483Z,14.00
2023-04-23T09:52:19.573Z,2.90
2023-04-23T09:53:19.566Z,2.70
2023-04-23T09:54:19.555Z,2.20
2023-04-23T09:55:19.433Z,3.60
2023-04-23T09:56:19.790Z,4.20
2023-04-23T09:57:19.524Z,2.70
2023-04-23T09:58:19.420Z,3.60
2023-04-23T09:59:19.458Z,5.40
2023-04-23T10:00:19.897Z,6.20
2023-04-23T10:01:19.444Z,2.10
2023-04-23T10:02:19.543Z,4.20
2023-04-23T10:03:19.834Z,2.60
2023-04-23T10:04:19.677Z,8.20
2023-04-23T10:05:24.181Z,3.30
2023-04-23T10:06:39.660Z,2.20
2023-04-23T10:07:20.380Z,8.40
2023-04-23T10:08:19.399Z,2.60
2023-04-23T10:09:19.372Z,2.90
2023-04-23T10:10:19.715Z,3.80
2023-04-23T10:11:21.113Z,6.60
2023-04-23T10:13:21.411Z,2.10
2023-04-23T10:14:19.302Z,3.80
2023-04-23T10:15:19.222Z,3.00
2023-04-23T10:16:23.355Z,3.40
2023-04-23T10:17:19.253Z,2.20
2023-04-23T10:18:19.319Z,4.50
2023-04-23T10:19:19.277Z,3.30
2023-04-23T10:20:19.209Z,3.80
2023-04-23T10:21:19.216Z,2.90
2023-04-23T10:22:20.046Z,2.20
2023-04-23T10:23:19.523Z,2.90
2023-04-23T10:24:19.201Z,1.70
2023-04-23T10:25:19.176Z,2.80
2023-04-23T10:26:19.210Z,2.20
2023-04-23T10:27:30.654Z,2.90
2023-04-23T10:28:19.235Z,3.60
2023-04-23T10:29:19.165Z,3.00
2023-04-23T10:30:19.193Z,2.50
2023-04-23T10:31:19.181Z,2.40
2023-04-23T10:32:19.100Z,3.30
2023-04-23T10:33:29.477Z,4.50
2023-04-23T10:34:19.121Z,2.30
2023-04-23T10:35:19.026Z,1.90
2023-04-23T10:36:19.087Z,2.00
2023-04-23T10:37:19.101Z,1.00
2023-04-23T10:38:19.008Z,1.20
2023-04-23T10:39:27.500Z,3.80
2023-04-23T10:40:19.024Z,1.90
2023-04-23T10:41:20.630Z,1.40
2023-04-23T10:42:19.340Z,1.90
2023-04-23T10:43:18.986Z,1.20
2023-04-23T10:44:28.436Z,3.50
2023-04-23T10:46:19.029Z,2.70
2023-04-23T10:47:18.912Z,1.40
2023-04-23T10:48:19.008Z,4.80
2023-04-23T10:49:18.926Z,1.40
2023-04-23T10:50:19.051Z,2.20
2023-04-23T10:52:05.799Z,2.40
2023-04-23T10:52:25.138Z,1.30
2023-04-23T10:53:18.894Z,8.20
2023-04-23T10:54:18.965Z,2.30
2023-04-23T10:55:18.860Z,4.10
2023-04-23T10:56:19.085Z,2.10
2023-04-23T10:57:18.832Z,4.30
2023-04-23T10:58:18.829Z,3.50
2023-04-23T10:59:18.748Z,2.70
2023-04-23T11:00:18.882Z,4.30
2023-04-23T11:01:18.736Z,1.50
2023-04-23T11:02:18.856Z,1.10
2023-04-23T11:03:18.973Z,1.40
2023-04-23T11:04:19.014Z,7.20
2023-04-23T11:05:18.739Z,3.60
2023-04-23T11:06:18.734Z,2.10
2023-04-23T11:07:18.769Z,5.40
2023-04-23T11:08:20.012Z,3.50
2023-04-23T11:09:18.712Z,1.60
2023-04-23T11:10:18.716Z,4.70
2023-04-23T11:11:18.690Z,1.50
2023-04-23T11:12:18.721Z,5.40
2023-04-23T11:13:18.646Z,3.70
2023-04-23T11:14:18.735Z,1.20
2023-04-23T11:15:18.975Z,1.00
2023-04-23T11:16:18.816Z,1.90
2023-04-23T11:17:18.711Z,1.70
2023-04-23T11:18:18.676Z,2.90
2023-04-23T11:19:20.561Z,0.90
2023-04-23T11:20:18.604Z,2.80
2023-04-23T11:21:18.617Z,1.60
2023-04-23T11:22:18.853Z,1.50
2023-04-23T11:23:18.553Z,0.50
2023-04-23T11:24:18.557Z,1.70
2023-04-23T11:25:18.520Z,8.70
2023-04-23T11:26:18.570Z,2.00
2023-04-23T11:27:18.495Z,2.30
2023-04-23T11:28:18.496Z,1.50
2023-04-23T11:29:18.740Z,3.60
2023-04-23T11:30:18.569Z,3.20
2023-04-23T11:31:18.518Z,1.50
2023-04-23T11:32:18.604Z,1.20
2023-04-23T11:33:18.434Z,1.20
2023-04-23T11:34:18.408Z,2.90
2023-04-23T11:35:18.426Z,1.30
2023-04-23T11:36:18.825Z,2.50
2023-04-23T11:37:18.446Z,2.10
2023-04-23T11:38:18.342Z,1.60
2023-04-23T11:39:18.400Z,1.00
2023-04-23T11:40:18.379Z,1.30
2023-04-23T11:41:19.533Z,5.70
2023-04-23T11:42:18.404Z,2.20
2023-04-23T11:43:18.633Z,1.10
2023-04-23T11:44:18.350Z,2.90
2023-04-23T11:45:18.349Z,5.60
2023-04-23T11:46:18.421Z,1.90
2023-04-23T11:47:18.335Z,3.70
2023-04-23T11:48:18.392Z,1.70
2023-04-23T11:49:18.294Z,5.30
2023-04-23T11:50:18.329Z,1.70
2023-04-23T11:51:18.250Z,0.40
2023-04-23T11:52:18.379Z,0.80
2023-04-23T11:53:18.231Z,4.30
2023-04-23T11:54:18.398Z,4.30
2023-04-23T11:55:18.169Z,1.40
2023-04-23T11:56:18.541Z,1.90
2023-04-23T11:57:18.215Z,0.80
2023-04-23T11:58:18.156Z,1.40
2023-04-23T11:59:18.200Z,1.00
2023-04-23T12:00:18.238Z,2.30
2023-04-23T12:01:18.167Z,1.10
2023-04-23T12:02:18.256Z,1.90
2023-04-23T12:03:18.494Z,1.80
2023-04-23T12:04:18.224Z,2.70
2023-04-23T12:05:18.110Z,2.00
2023-04-23T12:06:18.184Z,2.10
2023-04-23T12:07:26.356Z,1.30
2023-04-23T12:08:18.148Z,1.50
2023-04-23T12:09:18.073Z,2.50
2023-04-23T12:10:18.075Z,2.00
2023-04-23T12:11:18.045Z,0.80
2023-04-23T12:12:18.045Z,2.10
2023-04-23T12:13:18.024Z,1.10
2023-04-23T12:14:17.971Z,2.20
2023-04-23T12:15:17.951Z,2.30
2023-04-23T12:16:18.368Z,1.00
2023-04-23T12:17:17.998Z,1.30
2023-04-23T12:18:18.045Z,2.20
2023-04-23T12:19:17.990Z,1.10
2023-04-23T12:20:17.986Z,1.50
2023-04-23T12:21:18.010Z,1.70
2023-04-23T12:22:17.969Z,1.90
2023-04-23T12:23:18.164Z,2.60
2023-04-23T12:24:17.952Z,1.10
2023-04-23T12:25:17.875Z,5.50
2023-04-23T12:26:18.132Z,1.90
2023-04-23T12:27:17.894Z,1.20
2023-04-23T12:28:17.844Z,1.80
2023-04-23T12:29:17.851Z,5.10
2023-04-23T12:30:18.178Z,1.30
2023-04-23T12:31:17.837Z,6.40
2023-04-23T12:32:17.864Z,1.00
2023-04-23T12:33:17.808Z,2.00
2023-04-23T12:34:17.868Z,2.70
2023-04-23T12:35:17.839Z,2.50
2023-04-23T12:36:17.874Z,5.10
2023-04-23T12:37:18.057Z,2.40
2023-04-23T12:38:17.804Z,1.30
2023-04-23T12:39:17.762Z,4.60
2023-04-23T12:40:17.781Z,3.70
2023-04-23T12:41:17.736Z,6.70
2023-04-23T12:42:17.799Z,1.60
2023-04-23T12:43:17.723Z,1.00
2023-04-23T12:44:17.951Z,1.70
2023-04-23T12:45:17.648Z,1.10
2023-04-23T12:46:17.650Z,1.10
2023-04-23T12:47:17.673Z,1.50
2023-04-23T12:48:17.725Z,0.70
2023-04-23T12:49:17.662Z,1.80
2023-04-23T12:50:17.640Z,1.10
2023-04-23T12:51:17.974Z,1.10
2023-04-23T12:52:17.658Z,1.00
2023-04-23T12:53:17.628Z,2.00
2023-04-23T12:54:17.764Z,2.20
2023-04-23T12:55:17.677Z,0.60
2023-04-23T12:56:17.617Z,0.80
2023-04-23T12:57:19.033Z,0.90
2023-04-23T12:58:17.596Z,0.50
2023-04-23T12:59:17.537Z,0.70
2023-04-23T13:00:17.657Z,3.20
2023-04-23T13:01:17.558Z,0.90
2023-04-23T13:02:17.626Z,1.00
2023-04-23T13:03:17.598Z,0.80
2023-04-23T13:04:17.753Z,0.90
2023-04-23T13:05:18.180Z,2.60
2023-04-23T13:06:17.544Z,0.30
2023-04-23T13:07:17.513Z,0.80
2023-04-23T13:08:17.416Z,0.60
2023-04-23T13:09:17.407Z,1.40
2023-04-23T13:10:17.416Z,0.90
2023-04-23T13:11:17.472Z,1.20